KP58

Port Hope Airport

Port Hope, Michigan, USA
METAR KP58 250451Z AUTO 22005KT 21/11 A2999 RMK AO1 SLP152 T02060106 402220150
Observed Flight Rules
May-25 @ 04:51 UTC (34 minutes ago)
Wind
220° at 5 knots
Temperatures Readings
Current 21°C / 70°F
Dewpoint 11°C / 52°F
Humidity 53%
Altimeter 29.99" Hg
Pressure 1015.2 hPa
Elevation 179
METAR KP58 250451Z AUTO 22005KT 21/11 A2999 RMK AO1 SLP152 T02060106 402220150
Observed Flight Rules
May-25 @ 04:51 UTC
(34 minutes ago)
Wind
220° at 5 knots
Temperature Dewpoint
21°C / 70°F 11°C / 52°F
Humidity Altimeter Pressure
53% 29.99" Hg 1015.2 hPa